| time (UTC) | temp F | wind direction | speed MPH | gust MPH | rain 1hr in | rain 24hr in | rain mn in | humidity % | barometer mb |
| 20260508205655 | 63 | 208 | 5.0 | 9.0 | 0.00 | 0.00 | 0.00 | 36 | 973.0 |
| 20260508205155 | 63 | 263 | 4.0 | 8.0 | 0.00 | 0.00 | 0.00 | 36 | 974.0 |
| 20260508204655 | 63 | 229 | 5.0 | 8.0 | 0.00 | 0.00 | 0.00 | 38 | 974.0 |
| 20260508204155 | 63 | 223 | 3.0 | 10.0 | 0.00 | 0.00 | 0.00 | 35 | 974.0 |
| 20260508203655 | 64 | 199 | 5.0 | 8.0 | 0.00 | 0.00 | 0.00 | 36 | 974.0 |
| 20260508203155 | 66 | 289 | 4.0 | 8.0 | 0.00 | 0.00 | 0.00 | 38 | 974.0 |
| 20260508202655 | 67 | 273 | 7.0 | 10.0 | 0.00 | 0.00 | 0.00 | 37 | 974.0 |
| 20260508202155 | 67 | 267 | 4.0 | 9.0 | 0.00 | 0.00 | 0.00 | 37 | 974.0 |
| 20260508201655 | 64 | 196 | 2.0 | 3.0 | 0.00 | 0.00 | 0.00 | 42 | 974.0 |
| 20260508201156 | 63 | 214 | 1.0 | 4.0 | 0.00 | 0.00 | 0.00 | 40 | 974.0 |
| 20260508200655 | 64 | 267 | 3.0 | 9.0 | 0.00 | 0.00 | 0.00 | 39 | 974.0 |
| 20260508200155 | 65 | 222 | 3.0 | 4.0 | 0.00 | 0.00 | 0.00 | 38 | 974.0 |
| 20260508195655 | 66 | 252 | 4.0 | 7.0 | 0.00 | 0.00 | 0.00 | 41 | 974.0 |
| 20260508195155 | 67 | 280 | 6.0 | 10.0 | 0.00 | 0.00 | 0.00 | 38 | 974.0 |
| 20260508194655 | 67 | 244 | 6.0 | 9.0 | 0.00 | 0.00 | 0.00 | 37 | 974.0 |
| 20260508194156 | 67 | 270 | 5.0 | 7.0 | 0.00 | 0.00 | 0.00 | 38 | 975.0 |
| 20260508193655 | 66 | 128 | 3.0 | 4.0 | 0.00 | 0.00 | 0.00 | 41 | 975.0 |
| 20260508193156 | 66 | 293 | 4.0 | 7.0 | 0.00 | 0.00 | 0.00 | 35 | 975.0 |
| 20260508192655 | 65 | 306 | 2.0 | 9.0 | 0.00 | 0.00 | 0.00 | 43 | 975.0 |
| 20260508192155 | 64 | 286 | 5.0 | 8.0 | 0.00 | 0.00 | 0.00 | 43 | 975.0 |
| 20260508191655 | 64 | 260 | 3.0 | 7.0 | 0.00 | 0.00 | 0.00 | 35 | 975.0 |
| 20260508191155 | 64 | 209 | 1.0 | 6.0 | 0.00 | 0.00 | 0.00 | 40 | 975.0 |
| 20260508190655 | 64 | 299 | 7.0 | 8.0 | 0.00 | 0.00 | 0.00 | 39 | 975.0 |
| 20260508190157 | 64 | 293 | 5.0 | 9.0 | 0.00 | 0.00 | 0.00 | 35 | 975.0 |
| 20260508185655 | 64 | 276 | 3.0 | 3.0 | 0.00 | 0.00 | 0.00 | 43 | 975.0 |
| 20260508185155 | 64 | 191 | 2.0 | 4.0 | 0.00 | 0.00 | 0.00 | 36 | 975.0 |
| 20260508184655 | 64 | 259 | 1.0 | 4.0 | 0.00 | 0.00 | 0.00 | 36 | 975.0 |
| 20260508184155 | 63 | 151 | 0.0 | 2.0 | 0.00 | 0.00 | 0.00 | 39 | 976.0 |
| 20260508183656 | 64 | 226 | 4.0 | 6.0 | 0.00 | 0.00 | 0.00 | 37 | 976.0 |
| 20260508183155 | 65 | 242 | 4.0 | 13.0 | 0.00 | 0.00 | 0.00 | 38 | 976.0 |
| 20260508182656 | 66 | 202 | 3.0 | 6.0 | 0.00 | 0.00 | 0.00 | 39 | 976.0 |
| 20260508182155 | 66 | 276 | 4.0 | 6.0 | 0.00 | 0.00 | 0.00 | 41 | 975.0 |
| 20260508181655 | 65 | 146 | 1.0 | 2.0 | 0.00 | 0.00 | 0.00 | 38 | 976.0 |
| 20260508181155 | 64 | 265 | 2.0 | 3.0 | 0.00 | 0.00 | 0.00 | 44 | 976.0 |
| 20260508180655 | 64 | 252 | 6.0 | 9.0 | 0.00 | 0.00 | 0.00 | 41 | 976.0 |
| 20260508180155 | 64 | 222 | 5.0 | 6.0 | 0.00 | 0.00 | 0.00 | 41 | 976.0 |
| 20260508175655 | 63 | 161 | 6.0 | 7.0 | 0.00 | 0.00 | 0.00 | 40 | 976.0 |
| 20260508175156 | 63 | 253 | 4.0 | 6.0 | 0.00 | 0.00 | 0.00 | 43 | 976.0 |
| 20260508174655 | 63 | 212 | 4.0 | 13.0 | 0.00 | 0.00 | 0.00 | 40 | 976.0 |
| 20260508174156 | 63 | 246 | 5.0 | 7.0 | 0.00 | 0.00 | 0.00 | 38 | 976.0 |
| 20260508173656 | 63 | 322 | 5.0 | 8.0 | 0.00 | 0.00 | 0.00 | 41 | 976.0 |
| 20260508173155 | 64 | 224 | 5.0 | 13.0 | 0.00 | 0.00 | 0.00 | 42 | 976.0 |
| 20260508172656 | 64 | 217 | 3.0 | 6.0 | 0.00 | 0.00 | 0.00 | 39 | 976.0 |
| 20260508172155 | 63 | 244 | 2.0 | 8.0 | 0.00 | 0.00 | 0.00 | 39 | 977.0 |
| 20260508171656 | 63 | 163 | 4.0 | 7.0 | 0.00 | 0.00 | 0.00 | 39 | 976.0 |
| 20260508171155 | 63 | 248 | 4.0 | 9.0 | 0.00 | 0.00 | 0.00 | 42 | 977.0 |
| 20260508170655 | 62 | 230 | 2.0 | 3.0 | 0.00 | 0.00 | 0.00 | 45 | 977.0 |
| 20260508170155 | 62 | 170 | 6.0 | 9.0 | 0.00 | 0.00 | 0.00 | 43 | 977.0 |
| 20260508165655 | 63 | 268 | 4.0 | 4.0 | 0.00 | 0.00 | 0.00 | 41 | 977.0 |
| 20260508165155 | 63 | 144 | 8.0 | 9.0 | 0.00 | 0.00 | 0.00 | 42 | 977.0 |
| 20260508164655 | 63 | 207 | 2.0 | 3.0 | 0.00 | 0.00 | 0.00 | 39 | 977.0 |
| 20260508164155 | 62 | 195 | 1.0 | 6.0 | 0.00 | 0.00 | 0.00 | 49 | 977.0 |
| 20260508163655 | 61 | 29 | 2.0 | 2.0 | 0.00 | 0.00 | 0.00 | 45 | 977.0 |
| 20260508163155 | 61 | 223 | 6.0 | 10.0 | 0.00 | 0.00 | 0.00 | 45 | 977.0 |
| 20260508162655 | 61 | 261 | 4.0 | 7.0 | 0.00 | 0.00 | 0.00 | 42 | 978.0 |
| 20260508162155 | 61 | 287 | 3.0 | 7.0 | 0.00 | 0.00 | 0.00 | 41 | 977.0 |
| 20260508161655 | 60 | 232 | 2.0 | 3.0 | 0.00 | 0.00 | 0.00 | 45 | 977.0 |
| 20260508161157 | 60 | 248 | 5.0 | 9.0 | 0.00 | 0.00 | 0.00 | 42 | 977.0 |
| 20260508160655 | 60 | 278 | 3.0 | 7.0 | 0.00 | 0.00 | 0.00 | 44 | 978.0 |
| 20260508160157 | 60 | 283 | 5.0 | 9.0 | 0.00 | 0.00 | 0.00 | 47 | 977.0 |
| 20260508155655 | 61 | 196 | 1.0 | 8.0 | 0.00 | 0.00 | 0.00 | 45 | 978.0 |
| 20260508155155 | 61 | 97 | 1.0 | 7.0 | 0.00 | 0.00 | 0.00 | 46 | 977.0 |
| 20260508154655 | 60 | 172 | 2.0 | 6.0 | 0.00 | 0.00 | 0.00 | 46 | 977.0 |
| 20260508154155 | 61 | 231 | 4.0 | 6.0 | 0.00 | 0.00 | 0.00 | 43 | 978.0 |
| 20260508153655 | 62 | 206 | 2.0 | 2.0 | 0.00 | 0.00 | 0.00 | 47 | 978.0 |
| 20260508153155 | 62 | 51 | 2.0 | 2.0 | 0.00 | 0.00 | 0.00 | 48 | 978.0 |
| 20260508152655 | 61 | 145 | 0.0 | 2.0 | 0.00 | 0.00 | 0.00 | 50 | 978.0 |
| 20260508152156 | 60 | 256 | 2.0 | 2.0 | 0.00 | 0.00 | 0.00 | 46 | 978.0 |
| 20260508151655 | 62 | 149 | 2.0 | 3.0 | 0.00 | 0.00 | 0.00 | 47 | 978.0 |
| 20260508151156 | 62 | 183 | 0.0 | 3.0 | 0.00 | 0.00 | 0.00 | 46 | 978.0 |
| 20260508150656 | 61 | 125 | 0.0 | 1.0 | 0.00 | 0.00 | 0.00 | 46 | 978.0 |
| 20260508150155 | 60 | 122 | 1.0 | 3.0 | 0.00 | 0.00 | 0.00 | 44 | 978.0 |
| 20260508145656 | 60 | 172 | 0.0 | 2.0 | 0.00 | 0.00 | 0.00 | 46 | 978.0 |
| 20260508145155 | 61 | 97 | 1.0 | 4.0 | 0.00 | 0.00 | 0.00 | 45 | 978.0 |
| 20260508144655 | 60 | 155 | 0.0 | 2.0 | 0.00 | 0.00 | 0.00 | 50 | 978.0 |
| 20260508144155 | 59 | 154 | 2.0 | 2.0 | 0.00 | 0.00 | 0.00 | 52 | 978.0 |
| 20260508143206 | 58 | 234 | 1.0 | 3.0 | 0.00 | 0.00 | 0.00 | 50 | 978.0 |
| 20260508142215 | 58 | 335 | 2.0 | 3.0 | 0.00 | 0.00 | 0.00 | 55 | 978.0 |
| 20260508141655 | 57 | 158 | 1.0 | 1.0 | 0.00 | 0.00 | 0.00 | 55 | 978.0 |
| 20260508141155 | 57 | 86 | 1.0 | 3.0 | 0.00 | 0.00 | 0.00 | 57 | 978.0 |
| 20260508140656 | 57 | 13 | 1.0 | 2.0 | 0.00 | 0.00 | 0.00 | 59 | 978.0 |
| 20260508140155 | 57 | 261 | 3.0 | 4.0 | 0.00 | 0.00 | 0.00 | 61 | 978.0 |
| 20260508135655 | 56 | 134 | 1.0 | 2.0 | 0.00 | 0.00 | 0.00 | 62 | 978.0 |
| 20260508135155 | 55 | 338 | 1.0 | 3.0 | 0.00 | 0.00 | 0.00 | 63 | 978.0 |
| 20260508134655 | 55 | 296 | 2.0 | 3.0 | 0.00 | 0.00 | 0.00 | 63 | 978.0 |
| 20260508134155 | 55 | 278 | 2.0 | 3.0 | 0.00 | 0.00 | 0.00 | 66 | 978.0 |
| 20260508133655 | 55 | 309 | 3.0 | 3.0 | 0.00 | 0.00 | 0.00 | 69 | 978.0 |
| 20260508133155 | 54 | 28 | 1.0 | 2.0 | 0.00 | 0.00 | 0.00 | 67 | 979.0 |
| 20260508132655 | 54 | 259 | 1.0 | 4.0 | 0.00 | 0.00 | 0.00 | 68 | 978.0 |
| 20260508132155 | 54 | 41 | 1.0 | 3.0 | 0.00 | 0.00 | 0.00 | 67 | 978.0 |
| 20260508131655 | 55 | 5 | 2.0 | 6.0 | 0.00 | 0.00 | 0.00 | 65 | 978.0 |
| 20260508131156 | 54 | 312 | 1.0 | 2.0 | 0.00 | 0.00 | 0.00 | 69 | 978.0 |
| 20260508130655 | 53 | 184 | 0.0 | 1.0 | 0.00 | 0.00 | 0.00 | 71 | 978.0 |
| 20260508130157 | 53 | 287 | 2.0 | 3.0 | 0.00 | 0.00 | 0.00 | 70 | 978.0 |
| 20260508125656 | 52 | 263 | 2.0 | 3.0 | 0.00 | 0.00 | 0.00 | 73 | 978.0 |
| 20260508125155 | 51 | 215 | 1.0 | 2.0 | 0.00 | 0.00 | 0.00 | 75 | 978.0 |
| 20260508124655 | 50 | 222 | 2.0 | 2.0 | 0.00 | 0.00 | 0.00 | 76 | 978.0 |
| 20260508124155 | 51 | 268 | 4.0 | 4.0 | 0.00 | 0.00 | 0.00 | 75 | 978.0 |
| 20260508123656 | 50 | 244 | 2.0 | 4.0 | 0.00 | 0.00 | 0.00 | 75 | 978.0 |
| 20260508123156 | 50 | 269 | 2.0 | 3.0 | 0.00 | 0.00 | 0.00 | 77 | 978.0 |
| 20260508122655 | 49 | 198 | 1.0 | 2.0 | 0.00 | 0.00 | 0.00 | 79 | 978.0 |
| 20260508122156 | 49 | 225 | 1.0 | 3.0 | 0.00 | 0.00 | 0.00 | 79 | 978.0 |
| 20260508121655 | 48 | 320 | 1.0 | 2.0 | 0.00 | 0.00 | 0.00 | 81 | 978.0 |
| 20260508121155 | 48 | 209 | 2.0 | 3.0 | 0.00 | 0.00 | 0.00 | 81 | 978.0 |
| 20260508120655 | 48 | 260 | 2.0 | 4.0 | 0.00 | 0.00 | 0.00 | 83 | 978.0 |
| 20260508120155 | 47 | 193 | 1.0 | 2.0 | 0.00 | 0.00 | 0.00 | 87 | 978.0 |
| 20260508115657 | 46 | 233 | 1.0 | 2.0 | 0.00 | 0.00 | 0.00 | 91 | 978.0 |
| 20260508115155 | 45 | 243 | 1.0 | 2.0 | 0.00 | 0.00 | 0.00 | 94 | 978.0 |
| 20260508114656 | 45 | 178 | 1.0 | 1.0 | 0.00 | 0.00 | 0.00 | 95 | 978.0 |
| 20260508114155 | 44 | 168 | 1.0 | 2.0 | 0.00 | 0.00 | 0.00 | 96 | 978.0 |
| 20260508113656 | 43 | 168 | 0.0 | 1.0 | 0.00 | 0.00 | 0.00 | 96 | 978.0 |
| 20260508113156 | 43 | 169 | 1.0 | 1.0 | 0.00 | 0.00 | 0.00 | 96 | 978.0 |
| 20260508112656 | 43 | 171 | 0.0 | 0.0 | 0.00 | 0.00 | 0.00 | 97 | 978.0 |
| 20260508112156 | 42 | 171 | 0.0 | 0.0 | 0.00 | 0.00 | 0.00 | 97 | 978.0 |
| 20260508111655 | 40 | 171 | 0.0 | 0.0 | 0.00 | 0.00 | 0.00 | 96 | 978.0 |
| 20260508111156 | 39 | 171 | 0.0 | 0.0 | 0.00 | 0.00 | 0.00 | 96 | 978.0 |
| 20260508110655 | 38 | 171 | 0.0 | 0.0 | 0.00 | 0.00 | 0.00 | 96 | 977.0 |
| 20260508110155 | 37 | 171 | 0.0 | 0.0 | 0.00 | 0.00 | 0.00 | 96 | 978.0 |
| 20260508105655 | 37 | 171 | 0.0 | 0.0 | 0.00 | 0.00 | 0.00 | 96 | 977.0 |
| 20260508105155 | 37 | 171 | 0.0 | 0.0 | 0.00 | 0.00 | 0.00 | 96 | 978.0 |
| 20260508104658 | 37 | 171 | 0.0 | 1.0 | 0.00 | 0.00 | 0.00 | 96 | 978.0 |
| 20260508104155 | 36 | 171 | 0.0 | 0.0 | 0.00 | 0.00 | 0.00 | 96 | 977.0 |
| 20260508103655 | 36 | 171 | 0.0 | 0.0 | 0.00 | 0.00 | 0.00 | 95 | 978.0 |
| 20260508103155 | 36 | 171 | 0.0 | 0.0 | 0.00 | 0.00 | 0.00 | 95 | 977.0 |
| 20260508102655 | 36 | 171 | 0.0 | 0.0 | 0.00 | 0.00 | 0.00 | 95 | 977.0 |
| 20260508102200 | 36 | 171 | 0.0 | 0.0 | 0.00 | 0.00 | 0.00 | 95 | 977.0 |
| 20260508101655 | 36 | 171 | 0.0 | 0.0 | 0.00 | 0.00 | 0.00 | 95 | 977.0 |
| 20260508101157 | 36 | 171 | 0.0 | 0.0 | 0.00 | 0.00 | 0.00 | 95 | 977.0 |
| 20260508100655 | 36 | 171 | 0.0 | 0.0 | 0.00 | 0.00 | 0.00 | 95 | 978.0 |
| 20260508100156 | 36 | 171 | 0.0 | 0.0 | 0.00 | 0.00 | 0.00 | 95 | 977.0 |
| 20260508095655 | 36 | 171 | 0.0 | 0.0 | 0.00 | 0.00 | 0.00 | 95 | 977.0 |
| 20260508095156 | 36 | 171 | 0.0 | 0.0 | 0.00 | 0.00 | 0.00 | 94 | 977.0 |
| 20260508094655 | 36 | 171 | 0.0 | 0.0 | 0.00 | 0.00 | 0.00 | 94 | 977.0 |
| 20260508094155 | 36 | 171 | 0.0 | 0.0 | 0.00 | 0.00 | 0.00 | 94 | 977.0 |
| 20260508093655 | 36 | 171 | 0.0 | 0.0 | 0.00 | 0.00 | 0.00 | 94 | 978.0 |
| 20260508093155 | 37 | 171 | 0.0 | 0.0 | 0.00 | 0.00 | 0.00 | 93 | 977.0 |
| 20260508092655 | 37 | 171 | 0.0 | 0.0 | 0.00 | 0.00 | 0.00 | 94 | 977.0 |
| 20260508092155 | 37 | 171 | 0.0 | 0.0 | 0.00 | 0.00 | 0.00 | 94 | 977.0 |
| 20260508091655 | 37 | 171 | 0.0 | 0.0 | 0.00 | 0.00 | 0.00 | 94 | 977.0 |
| 20260508091155 | 37 | 171 | 0.0 | 0.0 | 0.00 | 0.00 | 0.00 | 93 | 977.0 |
| 20260508090655 | 38 | 171 | 0.0 | 0.0 | 0.00 | 0.00 | 0.00 | 93 | 977.0 |
| 20260508090155 | 38 | 171 | 0.0 | 0.0 | 0.00 | 0.00 | 0.00 | 93 | 977.0 |
| 20260508085659 | 38 | 171 | 0.0 | 0.0 | 0.00 | 0.00 | 0.00 | 93 | 977.0 |
| 20260508085155 | 38 | 171 | 0.0 | 0.0 | 0.00 | 0.00 | 0.00 | 92 | 977.0 |
| 20260508084655 | 39 | 171 | 0.0 | 0.0 | 0.00 | 0.00 | 0.00 | 92 | 978.0 |
| 20260508084157 | 39 | 171 | 0.0 | 0.0 | 0.00 | 0.00 | 0.00 | 92 | 977.0 |
| 20260508083657 | 39 | 171 | 0.0 | 0.0 | 0.00 | 0.00 | 0.00 | 92 | 977.0 |
| 20260508083157 | 39 | 171 | 0.0 | 0.0 | 0.00 | 0.00 | 0.00 | 92 | 977.0 |
| 20260508082657 | 39 | 171 | 0.0 | 0.0 | 0.00 | 0.00 | 0.00 | 91 | 977.0 |
| 20260508082159 | 39 | 171 | 0.0 | 0.0 | 0.00 | 0.00 | 0.00 | 91 | 977.0 |
| 20260508081700 | 40 | 171 | 0.0 | 0.0 | 0.00 | 0.00 | 0.00 | 91 | 978.0 |
| 20260508081157 | 40 | 171 | 0.0 | 0.0 | 0.00 | 0.00 | 0.00 | 91 | 977.0 |
| 20260508080657 | 40 | 171 | 0.0 | 0.0 | 0.00 | 0.00 | 0.00 | 90 | 977.0 |
| 20260508080159 | 40 | 171 | 0.0 | 0.0 | 0.00 | 0.00 | 0.00 | 90 | 978.0 |
| 20260508075657 | 41 | 163 | 0.0 | 0.0 | 0.00 | 0.00 | 0.00 | 90 | 978.0 |
| 20260508075159 | 41 | 163 | 0.0 | 0.0 | 0.00 | 0.00 | 0.00 | 90 | 978.0 |
| 20260508074659 | 41 | 163 | 0.0 | 0.0 | 0.00 | 0.00 | 0.00 | 90 | 978.0 |
| 20260508074157 | 41 | 162 | 0.0 | 0.0 | 0.00 | 0.00 | 0.00 | 90 | 978.0 |
| 20260508073659 | 41 | 162 | 0.0 | 0.0 | 0.00 | 0.00 | 0.00 | 90 | 978.0 |
| 20260508073155 | 41 | 166 | 0.0 | 0.0 | 0.00 | 0.00 | 0.00 | 90 | 978.0 |
| 20260508072657 | 41 | 166 | 0.0 | 0.0 | 0.00 | 0.00 | 0.00 | 90 | 978.0 |
| 20260508072157 | 41 | 135 | 0.0 | 0.0 | 0.00 | 0.00 | 0.00 | 91 | 978.0 |
| 20260508071656 | 41 | 236 | 0.0 | 2.0 | 0.00 | 0.00 | 0.00 | 91 | 978.0 |
| 20260508071158 | 41 | 194 | 0.0 | 0.0 | 0.00 | 0.00 | 0.00 | 91 | 978.0 |
| 20260508070658 | 41 | 194 | 0.0 | 0.0 | 0.00 | 0.00 | 0.00 | 91 | 978.0 |
| 20260508070159 | 41 | 194 | 0.0 | 0.0 | 0.00 | 0.00 | 0.00 | 91 | 978.0 |
| 20260508065656 | 41 | 195 | 0.0 | 1.0 | 0.00 | 0.00 | 0.00 | 91 | 978.0 |
| 20260508065156 | 40 | 213 | 0.0 | 0.0 | 0.00 | 0.00 | 0.00 | 91 | 978.0 |
| 20260508064656 | 40 | 177 | 0.0 | 0.0 | 0.00 | 0.00 | 0.00 | 91 | 978.0 |
| 20260508064157 | 40 | 177 | 0.0 | 0.0 | 0.00 | 0.00 | 0.00 | 91 | 978.0 |
| 20260508063659 | 40 | 191 | 0.0 | 0.0 | 0.00 | 0.00 | 0.00 | 91 | 978.0 |
| 20260508063159 | 40 | 192 | 0.0 | 0.0 | 0.00 | 0.00 | 0.00 | 90 | 978.0 |
| 20260508062655 | 40 | 193 | 0.0 | 0.0 | 0.00 | 0.00 | 0.00 | 90 | 978.0 |
| 20260508062159 | 40 | 191 | 0.0 | 0.0 | 0.00 | 0.00 | 0.00 | 89 | 978.0 |
| 20260508061655 | 40 | 191 | 0.0 | 0.0 | 0.00 | 0.00 | 0.00 | 89 | 978.0 |
| 20260508061158 | 40 | 192 | 0.0 | 0.0 | 0.00 | 0.00 | 0.00 | 89 | 978.0 |
| 20260508060701 | 41 | 190 | 0.0 | 0.0 | 0.00 | 0.00 | 0.00 | 89 | 978.0 |
| 20260508060158 | 41 | 190 | 0.0 | 0.0 | 0.00 | 0.00 | 0.00 | 89 | 978.0 |
| 20260508055657 | 41 | 170 | 0.0 | 0.0 | 0.00 | 0.00 | 0.00 | 88 | 978.0 |
| 20260508055157 | 41 | 170 | 0.0 | 0.0 | 0.00 | 0.00 | 0.00 | 88 | 978.0 |
| 20260508054659 | 41 | 170 | 0.0 | 0.0 | 0.00 | 0.00 | 0.00 | 88 | 978.0 |
| 20260508054158 | 41 | 170 | 0.0 | 0.0 | 0.00 | 0.00 | 0.00 | 88 | 978.0 |
| 20260508053659 | 41 | 170 | 0.0 | 0.0 | 0.00 | 0.00 | 0.00 | 87 | 978.0 |
| 20260508053158 | 41 | 170 | 0.0 | 0.0 | 0.00 | 0.00 | 0.00 | 87 | 978.0 |
| 20260508052656 | 41 | 170 | 0.0 | 0.0 | 0.00 | 0.00 | 0.00 | 87 | 978.0 |
| 20260508052157 | 41 | 170 | 0.0 | 0.0 | 0.00 | 0.00 | 0.00 | 87 | 978.0 |
| 20260508051656 | 41 | 170 | 0.0 | 0.0 | 0.00 | 0.00 | 0.00 | 86 | 978.0 |
| 20260508051157 | 41 | 170 | 0.0 | 0.0 | 0.00 | 0.00 | 0.00 | 85 | 978.0 |
| 20260508050657 | 42 | 170 | 0.0 | 0.0 | 0.00 | 0.00 | 0.00 | 84 | 978.0 |
| 20260508050155 | 42 | 170 | 0.0 | 0.0 | 0.00 | 0.00 | 0.00 | 84 | 978.0 |
| 20260508045655 | 42 | 170 | 0.0 | 0.0 | 0.00 | 0.00 | 0.00 | 84 | 978.0 |
| 20260508045155 | 42 | 170 | 0.0 | 0.0 | 0.00 | 0.00 | 0.00 | 84 | 978.0 |
| 20260508044655 | 42 | 170 | 0.0 | 1.0 | 0.00 | 0.00 | 0.00 | 84 | 978.0 |
| 20260508044155 | 42 | 170 | 0.0 | 0.0 | 0.00 | 0.00 | 0.00 | 83 | 978.0 |
| 20260508043656 | 42 | 170 | 0.0 | 0.0 | 0.00 | 0.00 | 0.00 | 83 | 978.0 |
| 20260508043157 | 42 | 170 | 0.0 | 0.0 | 0.00 | 0.00 | 0.00 | 83 | 978.0 |
| 20260508042655 | 42 | 170 | 0.0 | 0.0 | 0.00 | 0.00 | 0.00 | 82 | 978.0 |
| 20260508042155 | 42 | 170 | 0.0 | 0.0 | 0.00 | 0.00 | 0.00 | 82 | 978.0 |
| 20260508041655 | 43 | 170 | 0.0 | 0.0 | 0.00 | 0.00 | 0.00 | 82 | 978.0 |
| 20260508041158 | 42 | 177 | 0.0 | 1.0 | 0.00 | 0.00 | 0.00 | 82 | 978.0 |
| 20260508040659 | 42 | 168 | 0.0 | 1.0 | 0.00 | 0.00 | 0.00 | 81 | 978.0 |
| 20260508040158 | 43 | 167 | 0.0 | 0.0 | 0.00 | 0.00 | 0.00 | 80 | 978.0 |
| 20260508035657 | 43 | 167 | 0.0 | 0.0 | 0.00 | 0.00 | 0.00 | 78 | 978.0 |
| 20260508035155 | 44 | 169 | 0.0 | 0.0 | 0.00 | 0.00 | 0.00 | 76 | 978.0 |
| 20260508034656 | 45 | 169 | 0.0 | 0.0 | 0.00 | 0.00 | 0.00 | 75 | 978.0 |
| 20260508034157 | 45 | 169 | 0.0 | 0.0 | 0.00 | 0.00 | 0.00 | 74 | 978.0 |
| 20260508033655 | 46 | 167 | 0.0 | 1.0 | 0.00 | 0.00 | 0.00 | 74 | 978.0 |
| 20260508033159 | 46 | 168 | 0.0 | 1.0 | 0.00 | 0.00 | 0.00 | 73 | 978.0 |
| 20260508032659 | 46 | 166 | 0.0 | 0.0 | 0.00 | 0.00 | 0.00 | 72 | 978.0 |
| 20260508032159 | 47 | 171 | 1.0 | 1.0 | 0.00 | 0.00 | 0.00 | 72 | 978.0 |
| 20260508031657 | 47 | 176 | 0.0 | 1.0 | 0.00 | 0.00 | 0.00 | 71 | 978.0 |
| 20260508031155 | 47 | 178 | 0.0 | 1.0 | 0.00 | 0.00 | 0.00 | 71 | 978.0 |
| 20260508030659 | 47 | 178 | 0.0 | 0.0 | 0.00 | 0.00 | 0.00 | 70 | 978.0 |
| 20260508030155 | 48 | 171 | 0.0 | 1.0 | 0.00 | 0.00 | 0.00 | 70 | 978.0 |
| 20260508025655 | 48 | 167 | 1.0 | 1.0 | 0.00 | 0.00 | 0.00 | 69 | 978.0 |
| 20260508025159 | 48 | 174 | 0.0 | 1.0 | 0.00 | 0.00 | 0.00 | 68 | 978.0 |
| 20260508024655 | 48 | 179 | 0.0 | 0.0 | 0.00 | 0.00 | 0.00 | 67 | 978.0 |
| 20260508024155 | 48 | 198 | 0.0 | 1.0 | 0.00 | 0.00 | 0.00 | 67 | 978.0 |
| 20260508023655 | 48 | 191 | 0.0 | 1.0 | 0.00 | 0.00 | 0.00 | 66 | 978.0 |
| 20260508023157 | 48 | 194 | 0.0 | 0.0 | 0.00 | 0.00 | 0.00 | 66 | 978.0 |
| 20260508022655 | 49 | 265 | 1.0 | 2.0 | 0.00 | 0.00 | 0.00 | 65 | 978.0 |
| 20260508022156 | 49 | 209 | 1.0 | 3.0 | 0.00 | 0.00 | 0.00 | 64 | 978.0 |
| 20260508021655 | 50 | 203 | 0.0 | 2.0 | 0.00 | 0.00 | 0.00 | 62 | 978.0 |
| 20260508021155 | 50 | 185 | 1.0 | 4.0 | 0.00 | 0.00 | 0.00 | 60 | 978.0 |
| 20260508020656 | 50 | 253 | 1.0 | 2.0 | 0.00 | 0.00 | 0.00 | 58 | 978.0 |
| 20260508020156 | 50 | 194 | 1.0 | 2.0 | 0.00 | 0.00 | 0.00 | 56 | 978.0 |
| 20260508015656 | 50 | 232 | 4.0 | 4.0 | 0.00 | 0.00 | 0.00 | 56 | 978.0 |
| 20260508015155 | 51 | 241 | 2.0 | 3.0 | 0.00 | 0.00 | 0.00 | 56 | 978.0 |
| 20260508014655 | 51 | 257 | 2.0 | 2.0 | 0.00 | 0.00 | 0.00 | 55 | 978.0 |
| 20260508014155 | 51 | 232 | 1.0 | 7.0 | 0.00 | 0.00 | 0.00 | 54 | 978.0 |
| 20260508013655 | 51 | 288 | 3.0 | 4.0 | 0.00 | 0.00 | 0.00 | 53 | 978.0 |
| 20260508013158 | 51 | 258 | 4.0 | 7.0 | 0.00 | 0.00 | 0.00 | 52 | 978.0 |
| 20260508012656 | 51 | 196 | 0.0 | 1.0 | 0.00 | 0.00 | 0.00 | 53 | 978.0 |
| 20260508012156 | 51 | 268 | 3.0 | 4.0 | 0.00 | 0.00 | 0.00 | 52 | 978.0 |
| 20260508011656 | 51 | 277 | 3.0 | 8.0 | 0.00 | 0.00 | 0.00 | 51 | 978.0 |
| 20260508011200 | 51 | 291 | 3.0 | 7.0 | 0.00 | 0.00 | 0.00 | 51 | 978.0 |
| 20260508010655 | 51 | 320 | 2.0 | 9.0 | 0.00 | 0.00 | 0.00 | 51 | 978.0 |
| 20260508010157 | 51 | 55 | 1.0 | 3.0 | 0.00 | 0.00 | 0.00 | 49 | 978.0 |
| 20260508005656 | 51 | 288 | 4.0 | 7.0 | 0.00 | 0.00 | 0.00 | 48 | 978.0 |
| 20260508005155 | 51 | 263 | 4.0 | 6.0 | 0.00 | 0.00 | 0.00 | 48 | 978.0 |
| 20260508004656 | 51 | 275 | 4.0 | 7.0 | 0.00 | 0.00 | 0.00 | 49 | 978.0 |
| 20260508004157 | 51 | 254 | 2.0 | 7.0 | 0.00 | 0.00 | 0.00 | 48 | 977.0 |
| 20260508003656 | 51 | 279 | 5.0 | 6.0 | 0.00 | 0.00 | 0.00 | 50 | 977.0 |
| 20260508003155 | 51 | 206 | 0.0 | 1.0 | 0.00 | 0.00 | 0.00 | 48 | 978.0 |
| 20260508002655 | 51 | 232 | 1.0 | 2.0 | 0.00 | 0.00 | 0.00 | 48 | 977.0 |
| 20260508002157 | 51 | 286 | 1.0 | 1.0 | 0.00 | 0.00 | 0.00 | 47 | 977.0 |
| 20260508001656 | 51 | 277 | 2.0 | 3.0 | 0.00 | 0.00 | 0.00 | 47 | 977.0 |
| 20260508001159 | 52 | 267 | 2.0 | 3.0 | 0.00 | 0.00 | 0.00 | 45 | 977.0 |
| 20260508000655 | 52 | 268 | 1.0 | 4.0 | 0.00 | 0.00 | 0.00 | 44 | 977.0 |
| 20260508000158 | 53 | 274 | 3.0 | 4.0 | 0.00 | 0.00 | 0.00 | 44 | 977.0 |
| 20260507235656 | 53 | 335 | 3.0 | 3.0 | 0.00 | 0.00 | 0.00 | 44 | 977.0 |
| 20260507235158 | 53 | 206 | 1.0 | 6.0 | 0.00 | 0.00 | 0.00 | 43 | 977.0 |
| 20260507234655 | 53 | 264 | 2.0 | 2.0 | 0.00 | 0.00 | 0.00 | 45 | 977.0 |
| 20260507234155 | 53 | 278 | 3.0 | 6.0 | 0.00 | 0.00 | 0.00 | 44 | 978.0 |
| 20260507233655 | 53 | 260 | 3.0 | 7.0 | 0.00 | 0.00 | 0.00 | 43 | 978.0 |
| 20260507233155 | 54 | 217 | 5.0 | 8.0 | 0.00 | 0.00 | 0.00 | 42 | 977.0 |
| 20260507232656 | 54 | 273 | 8.0 | 10.0 | 0.00 | 0.00 | 0.00 | 42 | 978.0 |
| 20260507232155 | 55 | 256 | 3.0 | 6.0 | 0.00 | 0.00 | 0.00 | 43 | 977.0 |
| 20260507231656 | 55 | 300 | 6.0 | 8.0 | 0.00 | 0.00 | 0.00 | 42 | 978.0 |
| 20260507231159 | 54 | 282 | 2.0 | 6.0 | 0.00 | 0.00 | 0.00 | 41 | 977.0 |
| 20260507230657 | 55 | 283 | 3.0 | 3.0 | 0.00 | 0.00 | 0.00 | 44 | 977.0 |
| 20260507230156 | 55 | 280 | 4.0 | 6.0 | 0.00 | 0.00 | 0.00 | 41 | 977.0 |
| 20260507225655 | 55 | 283 | 3.0 | 4.0 | 0.00 | 0.00 | 0.00 | 43 | 978.0 |
| 20260507225156 | 54 | 273 | 4.0 | 7.0 | 0.00 | 0.00 | 0.00 | 43 | 977.0 |
| 20260507224656 | 54 | 236 | 3.0 | 8.0 | 0.00 | 0.00 | 0.00 | 43 | 978.0 |
| 20260507224155 | 54 | 263 | 4.0 | 6.0 | 0.00 | 0.00 | 0.00 | 43 | 978.0 |
| 20260507223655 | 54 | 277 | 3.0 | 6.0 | 0.00 | 0.00 | 0.00 | 43 | 978.0 |
| 20260507223155 | 55 | 208 | 1.0 | 4.0 | 0.00 | 0.00 | 0.00 | 42 | 978.0 |
| 20260507222655 | 55 | 274 | 4.0 | 6.0 | 0.00 | 0.00 | 0.00 | 43 | 978.0 |
| 20260507222155 | 55 | 248 | 3.0 | 7.0 | 0.00 | 0.00 | 0.00 | 40 | 978.0 |
| 20260507221656 | 56 | 271 | 1.0 | 2.0 | 0.00 | 0.00 | 0.00 | 42 | 978.0 |
| 20260507221155 | 57 | 243 | 4.0 | 7.0 | 0.00 | 0.00 | 0.00 | 40 | 978.0 |
| 20260507220655 | 57 | 339 | 3.0 | 7.0 | 0.00 | 0.00 | 0.00 | 39 | 978.0 |
| 20260507220156 | 56 | 285 | 3.0 | 6.0 | 0.00 | 0.00 | 0.00 | 42 | 978.0 |
| 20260507215655 | 55 | 309 | 6.0 | 14.0 | 0.00 | 0.00 | 0.00 | 40 | 978.0 |
| 20260507215158 | 54 | 218 | 2.0 | 8.0 | 0.00 | 0.00 | 0.00 | 44 | 978.0 |
| 20260507214656 | 54 | 261 | 8.0 | 13.0 | 0.00 | 0.00 | 0.00 | 43 | 978.0 |
| 20260507214155 | 54 | 259 | 5.0 | 14.0 | 0.00 | 0.00 | 0.00 | 42 | 978.0 |
| 20260507213655 | 54 | 279 | 4.0 | 7.0 | 0.00 | 0.00 | 0.00 | 43 | 978.0 |
| 20260507213157 | 54 | 297 | 6.0 | 10.0 | 0.00 | 0.00 | 0.00 | 40 | 978.0 |
| 20260507212659 | 55 | 253 | 9.0 | 14.0 | 0.00 | 0.00 | 0.00 | 40 | 978.0 |
| 20260507212158 | 55 | 221 | 5.0 | 7.0 | 0.00 | 0.00 | 0.00 | 40 | 978.0 |
| 20260507211656 | 56 | 293 | 6.0 | 8.0 | 0.00 | 0.00 | 0.00 | 38 | 978.0 |
| 20260507211156 | 56 | 275 | 5.0 | 6.0 | 0.00 | 0.00 | 0.00 | 42 | 978.0 |
| 20260507210657 | 55 | 295 | 3.0 | 6.0 | 0.00 | 0.00 | 0.00 | 41 | 978.0 |
| 20260507210159 | 55 | 268 | 4.0 | 7.0 | 0.00 | 0.00 | 0.00 | 43 | 978.0 |